createdAt,value
2023-04-09T00:00:05.658Z,78.47
2023-04-09T00:01:10.878Z,78.48
2023-04-09T00:01:44.439Z,78.49
2023-04-09T00:02:17.963Z,78.55
2023-04-09T00:02:51.741Z,78.56
2023-04-09T00:03:25.700Z,78.56
2023-04-09T00:03:59.247Z,78.63
2023-04-09T00:04:32.866Z,78.56
2023-04-09T00:05:07.626Z,78.61
2023-04-09T00:05:41.526Z,78.55
2023-04-09T00:06:15.152Z,78.55
2023-04-09T00:06:48.768Z,78.41
2023-04-09T00:07:22.291Z,78.43
2023-04-09T00:07:56.451Z,78.47
2023-04-09T00:08:30.131Z,78.47
2023-04-09T00:09:03.623Z,78.47
2023-04-09T00:09:37.288Z,78.54
2023-04-09T00:10:11.120Z,78.53
2023-04-09T00:10:44.545Z,78.49
2023-04-09T00:11:19.766Z,78.56
2023-04-09T00:11:59.967Z,78.64
2023-04-09T00:12:35.507Z,78.71
2023-04-09T00:13:08.910Z,78.77
2023-04-09T00:13:42.481Z,78.65
2023-04-09T00:14:15.934Z,78.76
2023-04-09T00:14:49.334Z,78.72
2023-04-09T00:15:30.656Z,78.58
2023-04-09T00:16:05.315Z,78.38
2023-04-09T00:16:38.854Z,78.65
2023-04-09T00:17:12.508Z,78.69
2023-04-09T00:17:46.110Z,78.55
2023-04-09T00:18:19.593Z,78.67
2023-04-09T00:18:53.383Z,78.75
2023-04-09T00:19:27.047Z,78.84
2023-04-09T00:20:00.783Z,79.08
2023-04-09T00:20:34.375Z,79.05
2023-04-09T00:21:08.995Z,79.20
2023-04-09T00:21:42.607Z,79.21
2023-04-09T00:22:16.455Z,79.23
2023-04-09T00:22:50.566Z,79.30
2023-04-09T00:23:24.138Z,79.35
2023-04-09T00:23:58.732Z,79.41
2023-04-09T00:24:32.302Z,79.41
2023-04-09T00:25:06.200Z,79.40
2023-04-09T00:25:39.830Z,79.50
2023-04-09T00:26:13.221Z,79.48
2023-04-09T00:26:47.165Z,79.44
2023-04-09T00:27:20.535Z,79.43
2023-04-09T00:27:53.980Z,79.52
2023-04-09T00:28:27.410Z,79.48
2023-04-09T00:29:00.788Z,79.51
2023-04-09T00:29:34.309Z,79.51
2023-04-09T00:30:08.393Z,79.52
2023-04-09T00:30:41.773Z,79.49
2023-04-09T00:31:15.953Z,79.52
2023-04-09T00:31:49.361Z,79.60
2023-04-09T00:32:22.915Z,79.58
2023-04-09T00:32:56.364Z,79.67
2023-04-09T00:33:30.785Z,79.70
2023-04-09T00:34:04.202Z,79.65
2023-04-09T00:34:38.973Z,79.71
2023-04-09T00:35:12.648Z,79.63
2023-04-09T00:35:46.168Z,79.67
2023-04-09T00:36:19.732Z,79.68
2023-04-09T00:36:53.350Z,79.78
2023-04-09T00:37:26.824Z,79.72
2023-04-09T00:38:00.225Z,79.82
2023-04-09T00:38:33.721Z,79.81
2023-04-09T00:39:07.315Z,79.84
2023-04-09T00:39:41.416Z,79.83
2023-04-09T00:40:15.109Z,79.81
2023-04-09T00:40:51.659Z,79.87
2023-04-09T00:41:25.455Z,79.83
2023-04-09T00:42:03.116Z,79.88
2023-04-09T00:42:37.742Z,79.81
2023-04-09T00:43:12.329Z,79.77
2023-04-09T00:43:46.151Z,79.81
2023-04-09T00:44:20.044Z,79.82
2023-04-09T00:44:53.653Z,79.83
2023-04-09T00:45:27.165Z,79.84
2023-04-09T00:46:02.199Z,79.81
2023-04-09T00:46:36.000Z,79.79
2023-04-09T00:47:09.394Z,79.89
2023-04-09T00:47:45.616Z,79.91
2023-04-09T00:48:19.136Z,79.85
2023-04-09T00:48:52.886Z,79.89
2023-04-09T00:49:29.205Z,79.94
2023-04-09T00:50:03.457Z,79.93
2023-04-09T00:50:36.968Z,79.89
2023-04-09T00:51:11.219Z,79.88
2023-04-09T00:51:47.359Z,80.08
2023-04-09T00:52:21.665Z,79.90
2023-04-09T00:52:55.973Z,80.10
2023-04-09T00:53:29.604Z,80.24
2023-04-09T00:54:03.306Z,80.31
2023-04-09T00:54:37.215Z,80.34
2023-04-09T00:55:11.154Z,80.27
2023-04-09T00:55:46.044Z,80.27
2023-04-09T00:56:22.477Z,80.41
2023-04-09T00:56:57.624Z,80.55
2023-04-09T00:57:31.380Z,80.52
2023-04-09T00:58:05.467Z,80.53
2023-04-09T00:58:40.945Z,80.61
2023-04-09T00:59:15.035Z,80.51
2023-04-09T00:59:48.525Z,80.58
2023-04-09T01:00:22.139Z,80.67
2023-04-09T01:00:56.100Z,80.69
2023-04-09T01:01:29.694Z,80.57
2023-04-09T01:02:06.410Z,80.56
2023-04-09T01:02:41.332Z,80.59
2023-04-09T01:03:15.283Z,80.74
2023-04-09T01:03:49.842Z,80.80
2023-04-09T01:04:24.546Z,80.92
2023-04-09T01:04:59.085Z,80.98
2023-04-09T01:06:14.016Z,80.81
2023-04-09T01:06:54.127Z,81.01
2023-04-09T01:07:45.800Z,81.16
2023-04-09T01:08:41.893Z,81.24
2023-04-09T01:09:25.280Z,81.26
2023-04-09T01:10:20.054Z,81.51
2023-04-09T01:11:31.249Z,81.52
2023-04-09T01:13:07.951Z,81.67
2023-04-09T01:14:01.842Z,81.92
2023-04-09T01:14:41.080Z,82.11
2023-04-09T01:15:27.167Z,81.96
2023-04-09T01:16:03.560Z,82.09
2023-04-09T01:16:41.852Z,82.11
2023-04-09T01:17:32.242Z,81.97
2023-04-09T01:18:10.054Z,82.05
2023-04-09T01:18:58.497Z,81.99
2023-04-09T01:19:59.055Z,82.45
2023-04-09T01:20:40.889Z,82.77
2023-04-09T01:21:18.034Z,82.97
2023-04-09T01:21:56.764Z,82.69
2023-04-09T01:23:04.065Z,82.96
2023-04-09T01:24:11.265Z,82.63
2023-04-09T01:25:04.125Z,82.80
2023-04-09T01:26:03.243Z,82.61
2023-04-09T01:27:06.873Z,82.56
2023-04-09T01:28:27.588Z,82.39
2023-04-09T01:29:03.255Z,82.31
2023-04-09T01:29:45.809Z,82.34
2023-04-09T01:30:20.769Z,82.29
2023-04-09T01:30:59.778Z,82.32
2023-04-09T01:31:37.872Z,82.30
2023-04-09T01:32:12.528Z,82.31
2023-04-09T01:32:46.257Z,82.31
2023-04-09T01:33:21.669Z,82.28
2023-04-09T01:33:55.840Z,82.37
2023-04-09T01:34:31.002Z,82.39
2023-04-09T01:35:05.808Z,82.46
2023-04-09T01:35:40.698Z,82.40
2023-04-09T01:36:15.680Z,82.31
2023-04-09T01:36:57.303Z,82.39
2023-04-09T01:37:31.004Z,82.61
2023-04-09T01:38:05.565Z,82.34
2023-04-09T01:38:43.598Z,82.30
2023-04-09T01:39:17.704Z,82.33
2023-04-09T01:39:53.804Z,82.27
2023-04-09T01:40:27.821Z,82.41
2023-04-09T01:41:03.251Z,82.32
2023-04-09T01:41:38.402Z,82.25
2023-04-09T01:42:13.475Z,82.22
2023-04-09T01:42:48.580Z,82.21
2023-04-09T01:43:23.098Z,82.27
2023-04-09T01:43:58.815Z,82.25
2023-04-09T01:44:33.279Z,82.24
2023-04-09T01:45:09.722Z,82.32
2023-04-09T01:45:48.424Z,82.34
2023-04-09T01:46:23.100Z,82.31
2023-04-09T01:46:59.272Z,82.26
2023-04-09T01:47:33.594Z,82.30
2023-04-09T01:48:07.393Z,82.35
2023-04-09T01:48:41.356Z,82.35
2023-04-09T01:50:44.135Z,82.10
2023-04-09T01:51:18.416Z,82.08
2023-04-09T01:51:53.480Z,82.15
2023-04-09T01:52:27.857Z,82.06
2023-04-09T01:53:01.834Z,82.08
2023-04-09T01:53:35.707Z,82.15
2023-04-09T01:54:09.422Z,82.12
2023-04-09T01:54:43.406Z,82.16
2023-04-09T01:55:16.928Z,82.19
2023-04-09T01:55:50.673Z,82.29
2023-04-09T01:56:24.058Z,82.25
2023-04-09T01:56:58.109Z,82.24
2023-04-09T01:57:31.546Z,82.31
2023-04-09T01:58:07.975Z,82.25
2023-04-09T01:58:41.584Z,82.35
2023-04-09T01:59:15.393Z,82.53
2023-04-09T01:59:50.180Z,82.38
2023-04-09T02:00:27.160Z,82.39
2023-04-09T02:01:12.279Z,82.39
2023-04-09T02:01:48.366Z,82.39
2023-04-09T02:02:32.865Z,82.38
2023-04-09T02:03:06.450Z,82.38
2023-04-09T02:03:45.583Z,82.45
2023-04-09T02:04:37.626Z,82.47
2023-04-09T02:05:15.696Z,82.48
2023-04-09T02:06:04.620Z,82.55
2023-04-09T02:07:33.553Z,82.45
2023-04-09T02:08:11.165Z,83.00
2023-04-09T02:08:49.064Z,82.76
2023-04-09T02:09:24.652Z,82.87
2023-04-09T02:10:01.177Z,82.69
2023-04-09T02:10:36.448Z,82.72
2023-04-09T02:11:11.021Z,82.83
2023-04-09T02:11:49.204Z,82.84
2023-04-09T02:12:24.854Z,82.81
2023-04-09T02:12:59.591Z,82.88
2023-04-09T02:13:34.896Z,82.84
2023-04-09T02:14:11.420Z,82.88
2023-04-09T02:14:47.287Z,82.92
2023-04-09T02:15:22.278Z,82.85
2023-04-09T02:15:56.903Z,82.95
2023-04-09T02:16:32.349Z,82.91
2023-04-09T02:17:06.613Z,82.98
2023-04-09T02:17:40.108Z,82.94
2023-04-09T02:18:30.135Z,82.96
2023-04-09T02:19:03.773Z,82.83
2023-04-09T02:19:44.936Z,82.90
2023-04-09T02:20:19.084Z,82.87
2023-04-09T02:20:53.821Z,82.82
2023-04-09T02:21:28.796Z,82.89
2023-04-09T02:22:04.972Z,82.93
2023-04-09T02:22:39.419Z,82.98
2023-04-09T02:23:12.770Z,82.90
2023-04-09T02:23:46.249Z,82.98
2023-04-09T02:24:19.625Z,82.91
2023-04-09T02:24:53.046Z,82.95
2023-04-09T02:25:27.351Z,82.92
2023-04-09T02:26:01.742Z,82.95
2023-04-09T02:26:36.414Z,82.96
2023-04-09T02:27:10.274Z,82.89
2023-04-09T02:27:44.768Z,82.94
2023-04-09T02:28:18.784Z,82.91
2023-04-09T02:28:52.412Z,82.91
2023-04-09T02:29:25.996Z,82.97
2023-04-09T02:29:59.312Z,82.89
2023-04-09T02:30:33.320Z,83.00
2023-04-09T02:31:07.320Z,82.93
2023-04-09T02:31:40.711Z,82.87
2023-04-09T02:32:16.914Z,82.88
2023-04-09T02:32:52.258Z,82.92
2023-04-09T02:33:26.283Z,82.86
2023-04-09T02:33:59.978Z,82.81
2023-04-09T02:34:33.537Z,82.87
2023-04-09T02:35:07.201Z,82.94
2023-04-09T02:35:40.683Z,82.89
2023-04-09T02:36:14.257Z,82.82
2023-04-09T02:36:47.657Z,82.89
2023-04-09T02:37:21.032Z,82.87
2023-04-09T02:37:54.503Z,82.87
2023-04-09T02:38:28.014Z,82.85
2023-04-09T02:39:02.107Z,82.90
2023-04-09T02:39:35.918Z,82.74
2023-04-09T02:40:09.990Z,82.70
2023-04-09T02:40:43.487Z,82.79
2023-04-09T02:41:16.893Z,82.74
2023-04-09T02:41:50.421Z,82.75
2023-04-09T02:42:24.318Z,82.73
2023-04-09T02:42:58.359Z,82.68
2023-04-09T02:43:31.777Z,82.71
2023-04-09T02:44:05.198Z,82.63
2023-04-09T02:44:38.853Z,82.64
2023-04-09T02:45:12.292Z,82.65
2023-04-09T02:45:48.884Z,82.60
2023-04-09T02:46:22.339Z,82.59
2023-04-09T02:46:56.399Z,82.58
2023-04-09T02:47:30.608Z,82.52
2023-04-09T02:48:05.061Z,82.55
2023-04-09T02:48:41.273Z,82.51
2023-04-09T02:49:14.975Z,82.48
2023-04-09T02:49:48.268Z,82.44
2023-04-09T02:50:21.944Z,82.43
2023-04-09T02:50:57.103Z,82.42
2023-04-09T02:51:30.596Z,82.41
2023-04-09T02:52:04.282Z,82.46
2023-04-09T02:52:37.854Z,82.49
2023-04-09T02:53:11.377Z,82.39
2023-04-09T02:53:45.821Z,82.50
2023-04-09T02:54:19.174Z,82.42
2023-04-09T02:54:53.541Z,82.49
2023-04-09T02:55:27.545Z,82.64
2023-04-09T02:56:00.980Z,82.47
2023-04-09T02:56:34.688Z,82.51
2023-04-09T02:57:08.536Z,82.53
2023-04-09T02:57:42.057Z,82.59
2023-04-09T02:58:16.169Z,82.51
2023-04-09T02:58:52.024Z,82.48
2023-04-09T02:59:25.558Z,82.59
2023-04-09T02:59:59.887Z,82.49
2023-04-09T03:00:33.486Z,82.49
2023-04-09T03:01:06.899Z,82.49
2023-04-09T03:01:40.394Z,82.49
2023-04-09T03:02:14.099Z,82.52
2023-04-09T03:02:47.920Z,82.46
2023-04-09T03:03:21.577Z,82.50
2023-04-09T03:03:55.396Z,82.55
2023-04-09T03:04:28.795Z,82.66
2023-04-09T03:05:02.260Z,82.66
2023-04-09T03:05:36.408Z,82.56
2023-04-09T03:06:09.784Z,82.56
2023-04-09T03:06:43.360Z,82.52
2023-04-09T03:07:16.725Z,82.54
2023-04-09T03:07:50.116Z,82.61
2023-04-09T03:08:23.538Z,82.55
2023-04-09T03:08:57.026Z,82.72
2023-04-09T03:09:31.024Z,82.53
2023-04-09T03:10:04.999Z,82.57
2023-04-09T03:10:38.408Z,82.59
2023-04-09T03:11:11.813Z,82.63
2023-04-09T03:11:45.352Z,82.69
2023-04-09T03:12:18.774Z,82.66
2023-04-09T03:12:52.379Z,82.71
2023-04-09T03:13:28.060Z,82.74
2023-04-09T03:14:01.523Z,82.77
2023-04-09T03:14:35.349Z,82.59
2023-04-09T03:15:09.420Z,82.71
2023-04-09T03:15:42.984Z,82.86
2023-04-09T03:16:16.582Z,82.89
2023-04-09T03:16:50.116Z,82.84
2023-04-09T03:17:26.029Z,82.81
2023-04-09T03:17:59.516Z,82.85
2023-04-09T03:18:32.996Z,82.86
2023-04-09T03:19:06.568Z,82.84
2023-04-09T03:19:40.146Z,82.82
2023-04-09T03:20:13.610Z,82.83
2023-04-09T03:20:47.416Z,82.83
2023-04-09T03:21:21.498Z,82.86
2023-04-09T03:21:56.239Z,82.88
2023-04-09T03:22:36.750Z,82.90
2023-04-09T03:23:11.764Z,82.93
2023-04-09T03:23:48.988Z,82.88
2023-04-09T03:24:22.579Z,82.91
2023-04-09T03:24:56.600Z,82.84
2023-04-09T03:25:30.097Z,82.86
2023-04-09T03:26:07.262Z,82.80
2023-04-09T03:26:46.518Z,82.82
2023-04-09T03:27:21.150Z,82.85
2023-04-09T03:27:56.152Z,82.87
2023-04-09T03:28:38.127Z,82.85
2023-04-09T03:29:11.523Z,82.87
2023-04-09T03:29:45.272Z,82.85
2023-04-09T03:30:19.317Z,82.82
2023-04-09T03:30:52.863Z,82.83
2023-04-09T03:31:26.531Z,82.84
2023-04-09T03:32:00.062Z,82.90
2023-04-09T03:32:33.545Z,82.85
2023-04-09T03:33:07.264Z,82.87
2023-04-09T03:33:45.609Z,82.82
2023-04-09T03:34:19.094Z,82.83
2023-04-09T03:34:55.560Z,82.84
2023-04-09T03:35:29.217Z,82.83
2023-04-09T03:36:05.089Z,82.73
2023-04-09T03:37:01.874Z,82.79
2023-04-09T03:37:38.075Z,82.81
2023-04-09T03:38:11.913Z,82.80
2023-04-09T03:38:48.047Z,82.70
2023-04-09T03:39:31.172Z,82.78
2023-04-09T03:40:05.063Z,82.74
2023-04-09T03:40:38.602Z,82.83
2023-04-09T03:41:12.093Z,82.78
2023-04-09T03:41:45.555Z,82.83
2023-04-09T03:42:22.148Z,82.77
2023-04-09T03:42:55.841Z,82.76
2023-04-09T03:43:29.232Z,82.78
2023-04-09T03:44:02.601Z,82.78
2023-04-09T03:44:40.507Z,82.73
2023-04-09T03:45:21.090Z,82.69
2023-04-09T03:45:56.413Z,82.80
2023-04-09T03:46:35.081Z,82.80
2023-04-09T03:47:09.233Z,82.81
2023-04-09T03:47:43.793Z,82.80
2023-04-09T03:48:18.178Z,82.79
2023-04-09T03:48:52.228Z,82.74
2023-04-09T03:49:26.167Z,82.76
2023-04-09T03:50:00.401Z,82.72
2023-04-09T03:50:39.828Z,82.74
2023-04-09T03:51:15.545Z,82.73
2023-04-09T03:51:53.507Z,82.67
2023-04-09T03:52:27.251Z,82.70
2023-04-09T03:53:07.126Z,82.70
2023-04-09T03:53:42.264Z,82.65
2023-04-09T03:54:15.819Z,82.62
2023-04-09T03:54:49.870Z,82.70
2023-04-09T03:55:25.812Z,82.58
2023-04-09T03:55:59.373Z,82.67
2023-04-09T03:56:33.208Z,82.64
2023-04-09T03:57:07.516Z,82.60
2023-04-09T03:57:42.692Z,82.59
2023-04-09T03:58:19.421Z,82.63
2023-04-09T03:58:54.084Z,82.64
2023-04-09T03:59:30.135Z,82.56
2023-04-09T04:00:04.419Z,82.62
2023-04-09T04:00:56.758Z,82.49
2023-04-09T04:01:56.944Z,82.57
2023-04-09T04:02:33.981Z,82.76
2023-04-09T04:03:12.434Z,82.57
2023-04-09T04:04:12.151Z,82.62
2023-04-09T04:04:59.038Z,82.59
2023-04-09T04:05:35.686Z,82.68
2023-04-09T04:06:09.693Z,82.67
2023-04-09T04:06:54.114Z,82.71
2023-04-09T04:07:44.201Z,82.72
2023-04-09T04:08:21.132Z,82.75
2023-04-09T04:08:55.061Z,82.77
2023-04-09T04:09:32.515Z,82.77
2023-04-09T04:10:12.267Z,82.79
2023-04-09T04:10:48.863Z,82.79
2023-04-09T04:11:22.793Z,82.73
2023-04-09T04:11:59.335Z,82.75
2023-04-09T04:12:47.709Z,82.71
2023-04-09T04:13:39.981Z,82.75
2023-04-09T04:14:14.674Z,82.77
2023-04-09T04:14:49.368Z,82.76
2023-04-09T04:15:28.736Z,82.71
2023-04-09T04:16:02.461Z,82.70
2023-04-09T04:16:37.248Z,82.73
2023-04-09T04:17:11.389Z,82.72
2023-04-09T04:17:45.129Z,82.68
2023-04-09T04:18:29.211Z,82.70
2023-04-09T04:19:02.679Z,82.76
2023-04-09T04:19:37.172Z,82.69
2023-04-09T04:20:11.668Z,82.79
2023-04-09T04:20:55.291Z,82.72
2023-04-09T04:21:29.254Z,82.80
2023-04-09T04:22:07.573Z,82.84
2023-04-09T04:22:41.372Z,82.90
2023-04-09T04:23:14.939Z,82.91
2023-04-09T04:23:55.193Z,82.82
2023-04-09T04:24:31.412Z,82.83
2023-04-09T04:25:06.944Z,82.82
2023-04-09T04:25:43.193Z,82.87
2023-04-09T04:26:19.467Z,82.95
2023-04-09T04:26:53.005Z,82.92
2023-04-09T04:27:26.791Z,82.75
2023-04-09T04:28:00.470Z,82.72
2023-04-09T04:28:42.440Z,82.85
2023-04-09T04:29:18.303Z,82.91
2023-04-09T04:30:02.329Z,82.92
2023-04-09T04:30:58.902Z,82.99
2023-04-09T04:31:35.995Z,82.91
2023-04-09T04:32:09.412Z,82.98
2023-04-09T04:32:43.366Z,82.98
2023-04-09T04:33:17.893Z,83.00
2023-04-09T04:33:55.631Z,83.08
2023-04-09T04:34:29.012Z,83.07
2023-04-09T04:35:09.762Z,83.07
2023-04-09T04:35:43.713Z,83.10
2023-04-09T04:36:28.692Z,83.12
2023-04-09T04:37:02.060Z,83.18
2023-04-09T04:37:37.769Z,83.05
2023-04-09T04:38:12.076Z,83.16
2023-04-09T04:38:45.776Z,83.15
2023-04-09T04:39:25.923Z,83.09
2023-04-09T04:40:07.729Z,83.15
2023-04-09T04:40:43.995Z,83.15
2023-04-09T04:41:21.013Z,83.15
2023-04-09T04:41:59.742Z,83.15
2023-04-09T04:42:34.724Z,83.25
2023-04-09T04:43:08.573Z,83.36
2023-04-09T04:43:41.972Z,83.18
2023-04-09T04:44:17.128Z,83.28
2023-04-09T04:44:50.672Z,83.25
2023-04-09T04:45:54.168Z,83.24
2023-04-09T04:46:30.586Z,83.23
2023-04-09T04:47:04.011Z,83.31
2023-04-09T04:47:37.792Z,83.26
2023-04-09T04:48:11.378Z,83.23
2023-04-09T04:48:44.865Z,83.23
2023-04-09T04:49:18.226Z,83.30
2023-04-09T04:49:53.767Z,83.21
2023-04-09T04:50:27.933Z,83.32
2023-04-09T04:51:07.878Z,83.24
2023-04-09T04:51:46.533Z,83.42
2023-04-09T04:52:21.116Z,83.40
2023-04-09T04:52:56.771Z,83.34
2023-04-09T04:53:32.428Z,83.30
2023-04-09T04:54:07.291Z,83.29
2023-04-09T04:54:41.101Z,83.31
2023-04-09T04:55:14.731Z,83.33
2023-04-09T04:55:48.662Z,83.33
2023-04-09T04:56:24.692Z,83.38
2023-04-09T04:57:08.835Z,83.36
2023-04-09T04:57:46.772Z,83.31
2023-04-09T04:58:20.328Z,83.28
2023-04-09T04:58:57.274Z,83.25
2023-04-09T04:59:31.262Z,83.26
2023-04-09T05:00:08.923Z,83.27
2023-04-09T05:00:42.755Z,83.16
2023-04-09T05:01:16.437Z,83.21
2023-04-09T05:01:50.075Z,83.28
2023-04-09T05:02:25.669Z,83.18
2023-04-09T05:03:17.207Z,83.22
2023-04-09T05:04:24.170Z,83.18
2023-04-09T05:04:58.162Z,83.29
2023-04-09T05:05:37.919Z,83.28
2023-04-09T05:06:11.522Z,83.22
2023-04-09T05:06:48.723Z,83.25
2023-04-09T05:07:24.856Z,83.24
2023-04-09T05:08:00.238Z,83.28
2023-04-09T05:08:33.642Z,83.24
2023-04-09T05:09:07.447Z,83.24
2023-04-09T05:09:48.591Z,83.20
2023-04-09T05:10:22.070Z,83.29
2023-04-09T05:10:58.887Z,83.30
2023-04-09T05:11:38.505Z,83.36
2023-04-09T05:12:18.121Z,83.26
2023-04-09T05:12:54.697Z,83.29
2023-04-09T05:13:34.000Z,83.25
2023-04-09T05:14:07.882Z,83.33
2023-04-09T05:14:41.415Z,83.27
2023-04-09T05:15:15.284Z,83.27
2023-04-09T05:15:48.685Z,83.20
2023-04-09T05:16:22.437Z,83.32
2023-04-09T05:17:00.839Z,83.27
2023-04-09T05:17:39.596Z,83.26
2023-04-09T05:18:13.943Z,83.25
2023-04-09T05:18:48.082Z,83.28
2023-04-09T05:19:24.372Z,83.30
2023-04-09T05:20:03.137Z,83.19
2023-04-09T05:20:45.986Z,83.24
2023-04-09T05:21:19.363Z,83.19
2023-04-09T05:21:52.914Z,83.28
2023-04-09T05:22:27.683Z,83.10
2023-04-09T05:23:01.447Z,83.09
2023-04-09T05:23:38.307Z,83.14
2023-04-09T05:24:11.995Z,83.16
2023-04-09T05:24:46.051Z,83.16
2023-04-09T05:25:20.266Z,83.12
2023-04-09T05:25:53.784Z,83.15
2023-04-09T05:26:45.970Z,83.18
2023-04-09T05:27:19.799Z,83.15
2023-04-09T05:27:57.183Z,83.10
2023-04-09T05:28:31.312Z,83.16
2023-04-09T05:29:18.705Z,83.17
2023-04-09T05:29:52.149Z,83.17
2023-04-09T05:30:25.649Z,83.23
2023-04-09T05:31:00.851Z,83.22
2023-04-09T05:31:35.558Z,83.16
2023-04-09T05:32:12.188Z,83.11
2023-04-09T05:32:46.299Z,83.14
2023-04-09T05:33:20.520Z,83.16
2023-04-09T05:33:54.211Z,83.23
2023-04-09T05:34:31.140Z,83.20
2023-04-09T05:35:05.105Z,83.21
2023-04-09T05:35:40.207Z,83.29
2023-04-09T05:36:19.618Z,83.20
2023-04-09T05:36:53.759Z,83.13
2023-04-09T05:37:28.262Z,83.12
2023-04-09T05:38:01.903Z,83.15
2023-04-09T05:38:35.788Z,83.19
2023-04-09T05:39:09.157Z,83.19
2023-04-09T05:39:42.715Z,83.15
2023-04-09T05:40:16.582Z,83.12
2023-04-09T05:40:50.166Z,83.10
2023-04-09T05:41:23.705Z,83.02
2023-04-09T05:42:10.287Z,82.95
2023-04-09T05:42:48.325Z,83.02
2023-04-09T05:43:29.425Z,83.01
2023-04-09T05:44:02.917Z,83.08
2023-04-09T05:44:36.674Z,83.03
2023-04-09T05:45:20.655Z,83.02
2023-04-09T05:45:57.357Z,82.94
2023-04-09T05:46:31.720Z,82.92
2023-04-09T05:47:06.061Z,82.99
2023-04-09T05:47:46.259Z,82.83
2023-04-09T05:48:25.476Z,82.54
2023-04-09T05:48:59.299Z,82.57
2023-04-09T05:49:32.985Z,82.66
2023-04-09T05:50:10.260Z,82.64
2023-04-09T05:50:54.468Z,82.71
2023-04-09T05:51:29.543Z,82.74
2023-04-09T05:52:03.140Z,82.83
2023-04-09T05:52:38.089Z,82.88
2023-04-09T05:53:11.634Z,82.89
2023-04-09T05:53:46.142Z,82.85
2023-04-09T05:54:19.644Z,82.85
2023-04-09T05:54:53.096Z,82.79
2023-04-09T05:55:34.004Z,82.82
2023-04-09T05:56:15.758Z,82.73
2023-04-09T05:56:55.994Z,82.87
2023-04-09T05:57:30.807Z,82.89
2023-04-09T05:58:06.628Z,82.79
2023-04-09T05:58:40.043Z,82.72
2023-04-09T05:59:13.502Z,82.65
2023-04-09T05:59:49.498Z,82.75
2023-04-09T06:00:23.160Z,82.77
2023-04-09T06:00:56.729Z,82.66
2023-04-09T06:01:30.147Z,82.68
2023-04-09T06:02:03.763Z,82.68
2023-04-09T06:02:38.664Z,82.74
2023-04-09T06:03:12.296Z,82.72
2023-04-09T06:03:46.286Z,82.63
2023-04-09T06:04:20.055Z,82.64
2023-04-09T06:04:53.697Z,82.60
2023-04-09T06:05:27.281Z,82.59
2023-04-09T06:06:03.649Z,82.54
2023-04-09T06:06:39.115Z,82.55
2023-04-09T06:07:12.624Z,82.58
2023-04-09T06:07:46.269Z,82.49
2023-04-09T06:08:20.806Z,82.36
2023-04-09T06:08:54.391Z,82.26
2023-04-09T06:09:28.069Z,82.26
2023-04-09T06:10:02.521Z,82.37
2023-04-09T06:10:36.422Z,82.39
2023-04-09T06:11:10.711Z,82.17
2023-04-09T06:11:44.265Z,82.21
2023-04-09T06:12:22.330Z,81.88
2023-04-09T06:12:55.928Z,81.88
2023-04-09T06:13:29.361Z,81.89
2023-04-09T06:14:02.993Z,81.91
2023-04-09T06:14:36.617Z,82.05
2023-04-09T06:15:10.427Z,82.05
2023-04-09T06:15:43.923Z,82.12
2023-04-09T06:16:17.914Z,82.19
2023-04-09T06:16:51.399Z,82.09
2023-04-09T06:17:24.913Z,82.11
2023-04-09T06:17:59.500Z,82.10
2023-04-09T06:18:33.092Z,82.12
2023-04-09T06:19:06.500Z,82.03
2023-04-09T06:19:40.506Z,82.01
2023-04-09T06:20:13.993Z,82.01
2023-04-09T06:20:47.343Z,82.00
2023-04-09T06:21:20.984Z,81.97
2023-04-09T06:21:54.513Z,81.88
2023-04-09T06:22:27.932Z,81.88
2023-04-09T06:23:01.295Z,81.90
2023-04-09T06:23:36.527Z,81.87
2023-04-09T06:24:09.971Z,81.82
2023-04-09T06:24:43.475Z,81.80
2023-04-09T06:25:17.209Z,81.81
2023-04-09T06:25:50.859Z,81.75
2023-04-09T06:26:24.604Z,81.65
2023-04-09T06:26:57.995Z,81.64
2023-04-09T06:27:31.666Z,81.70
2023-04-09T06:28:05.374Z,81.54
2023-04-09T06:28:38.891Z,81.42
2023-04-09T06:29:12.329Z,81.43
2023-04-09T06:29:45.978Z,81.52
2023-04-09T06:30:19.357Z,81.50
2023-04-09T06:30:54.885Z,81.58
2023-04-09T06:31:28.472Z,81.65
2023-04-09T06:32:01.951Z,81.54
2023-04-09T06:32:46.876Z,81.54
2023-04-09T06:33:25.450Z,81.64
2023-04-09T06:33:59.124Z,81.56
2023-04-09T06:34:32.632Z,81.58
2023-04-09T06:35:10.809Z,81.57
2023-04-09T06:35:44.529Z,81.53
2023-04-09T06:36:17.958Z,81.51
2023-04-09T06:36:51.469Z,81.47
2023-04-09T06:37:24.965Z,81.57
2023-04-09T06:37:58.341Z,81.56
2023-04-09T06:38:31.736Z,81.56
2023-04-09T06:39:05.148Z,81.62
2023-04-09T06:39:40.469Z,81.58
2023-04-09T06:40:16.243Z,81.52
2023-04-09T06:40:49.727Z,81.53
2023-04-09T06:41:24.153Z,81.46
2023-04-09T06:41:57.521Z,81.39
2023-04-09T06:42:39.174Z,81.46
2023-04-09T06:43:24.556Z,81.51
2023-04-09T06:43:59.637Z,81.49
2023-04-09T06:44:34.369Z,81.49
2023-04-09T06:45:08.922Z,81.50
2023-04-09T06:45:42.761Z,81.54
2023-04-09T06:46:18.056Z,81.43
2023-04-09T06:46:51.690Z,81.45
2023-04-09T06:47:25.192Z,81.31
2023-04-09T06:47:59.031Z,81.36
2023-04-09T06:48:32.724Z,81.30
2023-04-09T06:49:06.328Z,81.37
2023-04-09T06:49:39.737Z,81.34
2023-04-09T06:50:13.262Z,81.30
2023-04-09T06:50:46.882Z,81.35
2023-04-09T06:51:20.605Z,81.30
2023-04-09T06:51:54.162Z,81.27
2023-04-09T06:52:27.697Z,81.24
2023-04-09T06:53:01.306Z,81.23
2023-04-09T06:53:34.842Z,81.24
2023-04-09T06:54:08.213Z,81.11
2023-04-09T06:54:41.575Z,81.13
2023-04-09T06:55:14.989Z,81.18
2023-04-09T06:55:48.379Z,81.19
2023-04-09T06:56:21.778Z,81.14
2023-04-09T06:56:55.241Z,81.17
2023-04-09T06:57:28.610Z,81.17
2023-04-09T06:58:02.991Z,81.23
2023-04-09T06:58:36.839Z,81.19
2023-04-09T06:59:10.246Z,81.22
2023-04-09T06:59:43.614Z,81.24
2023-04-09T07:00:17.216Z,81.20
2023-04-09T07:00:50.897Z,81.22
2023-04-09T07:01:24.328Z,81.13
2023-04-09T07:01:57.969Z,80.96
2023-04-09T07:02:31.639Z,81.07
2023-04-09T07:03:08.224Z,81.11
2023-04-09T07:03:42.108Z,80.99
2023-04-09T07:04:16.006Z,80.96
2023-04-09T07:04:49.456Z,81.05
2023-04-09T07:05:22.999Z,81.03
2023-04-09T07:05:57.830Z,81.03
2023-04-09T07:06:31.420Z,81.06
2023-04-09T07:07:04.855Z,81.03
2023-04-09T07:07:39.053Z,81.04
2023-04-09T07:08:12.635Z,81.00
2023-04-09T07:08:46.519Z,81.01
2023-04-09T07:09:20.029Z,80.81
2023-04-09T07:09:54.133Z,80.87
2023-04-09T07:10:27.678Z,80.82
2023-04-09T07:11:01.171Z,80.79
2023-04-09T07:11:34.638Z,80.75
2023-04-09T07:12:08.125Z,80.85
2023-04-09T07:12:41.562Z,80.75
2023-04-09T07:13:15.164Z,80.80
2023-04-09T07:13:48.679Z,80.83
2023-04-09T07:14:22.191Z,80.75
2023-04-09T07:15:03.826Z,80.70
2023-04-09T07:15:37.302Z,80.56
2023-04-09T07:16:10.910Z,80.64
2023-04-09T07:16:46.633Z,80.58
2023-04-09T07:17:20.208Z,80.61
2023-04-09T07:17:53.931Z,80.63
2023-04-09T07:18:27.503Z,80.62
2023-04-09T07:19:00.882Z,80.55
2023-04-09T07:19:35.245Z,80.58
2023-04-09T07:20:09.217Z,80.51
2023-04-09T07:20:42.794Z,80.59
2023-04-09T07:21:17.142Z,80.50
2023-04-09T07:21:51.231Z,80.47
2023-04-09T07:22:27.464Z,80.45
2023-04-09T07:23:01.243Z,80.32
2023-04-09T07:23:38.718Z,80.40
2023-04-09T07:24:12.221Z,80.42
2023-04-09T07:24:45.739Z,80.33
2023-04-09T07:25:19.398Z,80.34
2023-04-09T07:25:52.989Z,80.24
2023-04-09T07:26:26.531Z,80.21
2023-04-09T07:27:04.575Z,80.18
2023-04-09T07:27:38.465Z,80.16
2023-04-09T07:28:12.033Z,80.20
2023-04-09T07:28:45.764Z,80.18
2023-04-09T07:29:20.960Z,80.18
2023-04-09T07:29:58.772Z,80.27
2023-04-09T07:30:32.262Z,80.27
2023-04-09T07:31:06.068Z,80.30
2023-04-09T07:31:39.956Z,80.30
2023-04-09T07:32:13.698Z,80.34
2023-04-09T07:32:47.471Z,80.28
2023-04-09T07:33:21.228Z,80.32
2023-04-09T07:33:55.132Z,80.27
2023-04-09T07:34:28.796Z,80.29
2023-04-09T07:35:05.500Z,80.24
2023-04-09T07:35:39.138Z,80.25
2023-04-09T07:36:12.753Z,80.26
2023-04-09T07:36:46.512Z,80.23
2023-04-09T07:37:20.998Z,80.15
2023-04-09T07:37:54.434Z,80.14
2023-04-09T07:38:29.694Z,80.10
2023-04-09T07:39:03.154Z,80.03
2023-04-09T07:39:36.996Z,80.05
2023-04-09T07:40:11.013Z,80.06
2023-04-09T07:40:44.876Z,80.00
2023-04-09T07:41:18.308Z,79.93
2023-04-09T07:41:51.824Z,79.94
2023-04-09T07:42:25.933Z,79.95
2023-04-09T07:42:59.398Z,79.93
2023-04-09T07:43:33.331Z,80.00
2023-04-09T07:44:06.735Z,79.99
2023-04-09T07:44:40.421Z,79.97
2023-04-09T07:45:13.803Z,79.99